sensor_id;sensor_type;location;lat;lon;timestamp;noise_LAeq;noise_LA_min;noise_LA_max;noise_LA01;noise_LA95
1754;Laerm;58380;48.312;9.246;2022-11-21T07:39:50;44.19;33.95;57.88;;
1754;Laerm;58380;48.312;9.246;2022-11-21T07:42:15;44.88;34.81;59.97;;
1754;Laerm;58380;48.312;9.246;2022-11-21T07:44:41;46.47;33.92;59.68;;
1754;Laerm;58380;48.312;9.246;2022-11-21T07:47:07;45.08;35.27;56.10;;
1754;Laerm;58380;48.312;9.246;2022-11-21T07:49:32;46.61;38.43;57.32;;
1754;Laerm;58380;48.312;9.246;2022-11-21T07:51:58;47.54;37.05;59.88;;
1754;Laerm;58380;48.312;9.246;2022-11-21T07:54:23;44.77;35.62;60.31;;
1754;Laerm;58380;48.312;9.246;2022-11-21T07:56:48;45.27;33.19;55.63;;
1754;Laerm;58380;48.312;9.246;2022-11-21T07:59:14;44.94;36.41;57.57;;
1754;Laerm;58380;48.312;9.246;2022-11-21T08:01:39;47.52;35.68;59.12;;
1754;Laerm;58380;48.312;9.246;2022-11-21T08:04:05;45.92;35.22;54.12;;
1754;Laerm;58380;48.312;9.246;2022-11-21T08:06:30;46.40;35.03;55.53;;
1754;Laerm;58380;48.312;9.246;2022-11-21T08:08:55;48.34;39.28;61.54;;
1754;Laerm;58380;48.312;9.246;2022-11-21T08:11:21;48.49;36.98;56.45;;
1754;Laerm;58380;48.312;9.246;2022-11-21T08:13:46;45.74;35.05;57.79;;
1754;Laerm;58380;48.312;9.246;2022-11-21T08:16:12;46.98;36.30;57.27;;
1754;Laerm;58380;48.312;9.246;2022-11-21T08:18:37;47.88;39.19;55.31;;
1754;Laerm;58380;48.312;9.246;2022-11-21T08:21:03;47.51;36.25;59.23;;
1754;Laerm;58380;48.312;9.246;2022-11-21T08:23:30;47.39;36.26;57.11;;
1754;Laerm;58380;48.312;9.246;2022-11-21T08:25:56;45.56;33.03;62.92;;
1754;Laerm;58380;48.312;9.246;2022-11-21T08:28:22;48.42;35.11;76.37;;
1754;Laerm;58380;48.312;9.246;2022-11-21T08:30:47;47.65;31.94;60.73;;
1754;Laerm;58380;48.312;9.246;2022-11-21T08:33:13;43.01;34.01;59.57;;
1754;Laerm;58380;48.312;9.246;2022-11-21T08:35:39;46.98;33.66;57.22;;
1754;Laerm;58380;48.312;9.246;2022-11-21T08:38:07;45.81;35.84;56.46;;
1754;Laerm;58380;48.312;9.246;2022-11-21T08:40:34;47.20;34.42;58.41;;
1754;Laerm;58380;48.312;9.246;2022-11-21T08:43:06;46.86;37.07;57.77;;
1754;Laerm;58380;48.312;9.246;2022-11-21T08:45:35;44.47;34.31;54.70;;
1754;Laerm;58380;48.312;9.246;2022-11-21T08:48:03;46.87;35.85;57.51;;
1754;Laerm;58380;48.312;9.246;2022-11-21T08:50:29;44.34;34.54;56.52;;
1754;Laerm;58380;48.312;9.246;2022-11-21T08:53:00;46.84;32.20;58.98;;
1754;Laerm;58380;48.312;9.246;2022-11-21T08:55:27;44.26;36.12;53.45;;
1754;Laerm;58380;48.312;9.246;2022-11-21T08:57:52;45.76;36.35;55.16;;
1754;Laerm;58380;48.312;9.246;2022-11-21T09:00:18;48.25;37.91;60.13;;
1754;Laerm;58380;48.312;9.246;2022-11-21T09:02:43;47.19;35.79;56.10;;
1754;Laerm;58380;48.312;9.246;2022-11-21T09:05:09;45.90;32.12;61.37;;
1754;Laerm;58380;48.312;9.246;2022-11-21T09:07:35;47.39;33.84;56.57;;
1754;Laerm;58380;48.312;9.246;2022-11-21T09:10:00;47.16;32.87;58.74;;
1754;Laerm;58380;48.312;9.246;2022-11-21T09:12:26;49.01;33.52;59.21;;
1754;Laerm;58380;48.312;9.246;2022-11-21T09:14:51;46.29;37.17;58.62;;
1754;Laerm;58380;48.312;9.246;2022-11-21T09:17:36;45.33;32.26;57.03;;
1754;Laerm;58380;48.312;9.246;2022-11-21T09:20:21;43.52;33.65;55.82;;
1754;Laerm;58380;48.312;9.246;2022-11-21T09:22:46;45.52;34.23;56.94;;
1754;Laerm;58380;48.312;9.246;2022-11-21T09:25:12;49.88;36.79;61.94;;
1754;Laerm;58380;48.312;9.246;2022-11-21T09:27:37;46.05;32.78;59.86;;
1754;Laerm;58380;48.312;9.246;2022-11-21T09:30:03;48.28;36.94;56.09;;
1754;Laerm;58380;48.312;9.246;2022-11-21T09:32:29;48.09;37.29;60.47;;
1754;Laerm;58380;48.312;9.246;2022-11-21T09:34:54;45.74;33.64;60.45;;
1754;Laerm;58380;48.312;9.246;2022-11-21T09:37:20;41.75;33.01;52.15;;
1754;Laerm;58380;48.312;9.246;2022-11-21T09:39:45;44.33;33.33;55.61;;
1754;Laerm;58380;48.312;9.246;2022-11-21T09:42:45;47.64;35.49;59.44;;
1754;Laerm;58380;48.312;9.246;2022-11-21T09:45:29;45.12;35.14;56.89;;
1754;Laerm;58380;48.312;9.246;2022-11-21T09:48:03;45.18;36.24;57.22;;
1754;Laerm;58380;48.312;9.246;2022-11-21T09:50:46;43.95;34.81;53.48;;
1754;Laerm;58380;48.312;9.246;2022-11-21T09:53:25;43.63;31.37;60.11;;
1754;Laerm;58380;48.312;9.246;2022-11-21T09:56:03;49.34;38.68;63.74;;
1754;Laerm;58380;48.312;9.246;2022-11-21T09:58:40;51.66;35.66;68.03;;
1754;Laerm;58380;48.312;9.246;2022-11-21T10:01:16;44.89;35.34;59.60;;
1754;Laerm;58380;48.312;9.246;2022-11-21T10:03:47;45.03;36.79;60.88;;
1754;Laerm;58380;48.312;9.246;2022-11-21T10:06:26;44.61;34.79;57.72;;
1754;Laerm;58380;48.312;9.246;2022-11-21T10:12:31;47.31;33.57;58.50;;
1754;Laerm;58380;48.312;9.246;2022-11-21T10:24:03;45.62;35.23;54.84;;
1754;Laerm;58380;48.312;9.246;2022-11-21T10:29:38;52.42;38.58;76.46;;
1754;Laerm;58380;48.312;9.246;2022-11-21T10:32:20;45.03;32.51;54.59;;
1754;Laerm;58380;48.312;9.246;2022-11-21T10:34:50;43.34;34.40;54.78;;
1754;Laerm;58380;48.312;9.246;2022-11-21T10:37:42;41.15;31.76;59.02;;
1754;Laerm;58380;48.312;9.246;2022-11-21T10:42:59;44.17;33.74;56.16;;
1754;Laerm;58380;48.312;9.246;2022-11-21T10:45:45;45.03;34.82;60.24;;
1754;Laerm;58380;48.312;9.246;2022-11-21T10:48:11;43.28;34.14;59.26;;
1754;Laerm;58380;48.312;9.246;2022-11-21T10:53:30;44.30;34.35;55.05;;
1754;Laerm;58380;48.312;9.246;2022-11-21T11:01:34;46.30;35.80;56.20;;
1754;Laerm;58380;48.312;9.246;2022-11-21T11:06:38;46.16;35.43;56.61;;
1754;Laerm;58380;48.312;9.246;2022-11-21T11:09:04;46.57;36.38;55.29;;
1754;Laerm;58380;48.312;9.246;2022-11-21T11:11:31;46.20;37.46;58.58;;
1754;Laerm;58380;48.312;9.246;2022-11-21T11:14:05;48.45;36.82;61.75;;
1754;Laerm;58380;48.312;9.246;2022-11-21T11:16:36;46.62;37.51;61.10;;
1754;Laerm;58380;48.312;9.246;2022-11-21T11:29:16;47.47;32.58;58.65;;
1754;Laerm;58380;48.312;9.246;2022-11-21T11:31:56;41.17;31.82;52.95;;
1754;Laerm;58380;48.312;9.246;2022-11-21T11:34:38;45.70;34.47;62.28;;
1754;Laerm;58380;48.312;9.246;2022-11-21T11:46:40;45.26;33.05;58.95;;
1754;Laerm;58380;48.312;9.246;2022-11-21T11:49:47;43.91;34.09;53.71;;
1754;Laerm;58380;48.312;9.246;2022-11-21T11:52:45;45.34;35.89;59.39;;
1754;Laerm;58380;48.312;9.246;2022-11-21T11:55:21;41.00;31.05;54.06;;
1754;Laerm;58380;48.312;9.246;2022-11-21T11:57:53;42.25;32.20;51.69;;
1754;Laerm;58380;48.312;9.246;2022-11-21T12:00:41;44.71;33.65;60.61;;
1754;Laerm;58380;48.312;9.246;2022-11-21T12:03:21;40.93;31.24;51.87;;
1754;Laerm;58380;48.312;9.246;2022-11-21T12:06:18;45.10;32.99;54.92;;
1754;Laerm;58380;48.312;9.246;2022-11-21T12:09:02;43.28;32.61;63.03;;
1754;Laerm;58380;48.312;9.246;2022-11-21T12:12:03;46.29;37.09;55.97;;
1754;Laerm;58380;48.312;9.246;2022-11-21T12:17:47;44.49;34.90;58.67;;
1754;Laerm;58380;48.312;9.246;2022-11-21T12:20:35;45.38;33.70;56.01;;
1754;Laerm;58380;48.312;9.246;2022-11-21T12:23:04;50.93;33.99;71.02;;
1754;Laerm;58380;48.312;9.246;2022-11-21T12:25:37;48.17;35.27;59.43;;
1754;Laerm;58380;48.312;9.246;2022-11-21T12:28:20;45.55;36.63;55.63;;
1754;Laerm;58380;48.312;9.246;2022-11-21T12:31:12;48.77;35.59;60.08;;
1754;Laerm;58380;48.312;9.246;2022-11-21T12:40:03;42.81;35.29;54.09;;
1754;Laerm;58380;48.312;9.246;2022-11-21T12:51:38;46.46;34.35;57.18;;
1754;Laerm;58380;48.312;9.246;2022-11-21T12:57:09;44.57;32.52;62.07;;
1754;Laerm;58380;48.312;9.246;2022-11-21T13:00:08;43.25;31.13;56.82;;
1754;Laerm;58380;48.312;9.246;2022-11-21T13:05:41;42.79;31.05;51.74;;
1754;Laerm;58380;48.312;9.246;2022-11-21T13:08:15;44.07;35.85;52.83;;
1754;Laerm;58380;48.312;9.246;2022-11-21T13:17:38;47.24;34.61;61.06;;
1754;Laerm;58380;48.312;9.246;2022-11-21T13:20:21;44.46;35.36;54.67;;
1754;Laerm;58380;48.312;9.246;2022-11-21T13:22:50;41.78;31.50;55.82;;
1754;Laerm;58380;48.312;9.246;2022-11-21T13:30:49;45.26;32.70;59.60;;
1754;Laerm;58380;48.312;9.246;2022-11-21T13:52:48;44.29;33.66;54.55;;
1754;Laerm;58380;48.312;9.246;2022-11-21T14:07:20;48.02;36.83;60.43;;
1754;Laerm;58380;48.312;9.246;2022-11-21T14:09:50;46.40;39.40;55.45;;
1754;Laerm;58380;48.312;9.246;2022-11-21T14:12:22;48.46;39.78;61.72;;
1754;Laerm;58380;48.312;9.246;2022-11-21T14:15:19;45.31;36.63;57.57;;
1754;Laerm;58380;48.312;9.246;2022-11-21T14:17:57;45.57;35.40;55.74;;
1754;Laerm;58380;48.312;9.246;2022-11-21T14:20:47;48.42;36.58;62.43;;
1754;Laerm;58380;48.312;9.246;2022-11-21T14:23:19;47.09;37.42;56.58;;
1754;Laerm;58380;48.312;9.246;2022-11-21T14:25:50;46.30;33.65;57.38;;
1754;Laerm;58380;48.312;9.246;2022-11-21T14:28:33;53.00;38.80;66.61;;
1754;Laerm;58380;48.312;9.246;2022-11-21T14:31:08;43.56;35.14;54.27;;
1754;Laerm;58380;48.312;9.246;2022-11-21T14:33:45;46.21;36.57;54.32;;
1754;Laerm;58380;48.312;9.246;2022-11-21T14:36:17;46.33;37.55;58.16;;
1754;Laerm;58380;48.312;9.246;2022-11-21T14:38:58;46.38;36.83;56.28;;
1754;Laerm;58380;48.312;9.246;2022-11-21T14:46:36;42.90;33.96;52.22;;
1754;Laerm;58380;48.312;9.246;2022-11-21T14:51:37;44.75;34.36;51.21;;
1754;Laerm;58380;48.312;9.246;2022-11-21T14:54:03;47.08;35.48;58.03;;
1754;Laerm;58380;48.312;9.246;2022-11-21T14:56:31;46.79;36.19;68.06;;
1754;Laerm;58380;48.312;9.246;2022-11-21T14:59:01;47.64;35.69;59.81;;
1754;Laerm;58380;48.312;9.246;2022-11-21T15:01:32;46.32;38.56;54.87;;
1754;Laerm;58380;48.312;9.246;2022-11-21T15:04:03;44.66;37.04;52.56;;
1754;Laerm;58380;48.312;9.246;2022-11-21T15:06:31;48.65;39.55;58.98;;
1754;Laerm;58380;48.312;9.246;2022-11-21T15:09:04;46.42;38.50;54.88;;
1754;Laerm;58380;48.312;9.246;2022-11-21T15:11:38;45.23;36.44;52.36;;
1754;Laerm;58380;48.312;9.246;2022-11-21T15:14:21;47.24;35.26;57.89;;
1754;Laerm;58380;48.312;9.246;2022-11-21T15:16:51;47.32;36.42;60.58;;
1754;Laerm;58380;48.312;9.246;2022-11-21T15:19:25;46.63;37.51;53.16;;
1754;Laerm;58380;48.312;9.246;2022-11-21T15:21:54;47.13;39.19;56.31;;
1754;Laerm;58380;48.312;9.246;2022-11-21T15:24:37;47.41;40.83;64.70;;
1754;Laerm;58380;48.312;9.246;2022-11-21T15:33:10;47.85;38.10;57.25;;
1754;Laerm;58380;48.312;9.246;2022-11-21T15:35:49;47.83;39.78;62.65;;
1754;Laerm;58380;48.312;9.246;2022-11-21T15:38:26;48.20;40.53;55.09;;
1754;Laerm;58380;48.312;9.246;2022-11-21T15:46:23;46.05;40.20;56.24;;
1754;Laerm;58380;48.312;9.246;2022-11-21T15:48:53;49.23;40.61;62.48;;
1754;Laerm;58380;48.312;9.246;2022-11-21T15:51:25;48.58;41.21;66.03;;
1754;Laerm;58380;48.312;9.246;2022-11-21T15:53:54;49.22;40.71;59.89;;
1754;Laerm;58380;48.312;9.246;2022-11-21T15:56:20;54.24;35.02;78.03;;
1754;Laerm;58380;48.312;9.246;2022-11-21T15:58:49;47.07;37.89;54.45;;
1754;Laerm;58380;48.312;9.246;2022-11-21T16:01:18;48.17;38.45;56.49;;
1754;Laerm;58380;48.312;9.246;2022-11-21T16:03:48;46.13;38.20;61.18;;
1754;Laerm;58380;48.312;9.246;2022-11-21T16:06:14;48.48;41.78;55.03;;
1754;Laerm;58380;48.312;9.246;2022-11-21T16:08:40;47.62;38.88;58.80;;
1754;Laerm;58380;48.312;9.246;2022-11-21T16:11:10;47.08;41.15;56.22;;
1754;Laerm;58380;48.312;9.246;2022-11-21T16:13:40;47.15;40.35;60.59;;
1754;Laerm;58380;48.312;9.246;2022-11-21T16:16:05;47.51;39.77;61.02;;
1754;Laerm;58380;48.312;9.246;2022-11-21T16:18:30;48.19;38.56;62.65;;
1754;Laerm;58380;48.312;9.246;2022-11-21T16:21:07;47.47;38.44;59.28;;
1754;Laerm;58380;48.312;9.246;2022-11-21T16:23:34;46.93;38.22;56.68;;
1754;Laerm;58380;48.312;9.246;2022-11-21T16:26:00;45.60;38.11;53.35;;
1754;Laerm;58380;48.312;9.246;2022-11-21T16:28:26;47.50;39.28;57.08;;
1754;Laerm;58380;48.312;9.246;2022-11-21T16:30:51;48.58;37.83;58.49;;
1754;Laerm;58380;48.312;9.246;2022-11-21T16:33:17;46.52;38.06;53.49;;
1754;Laerm;58380;48.312;9.246;2022-11-21T16:35:42;47.51;40.33;57.70;;
1754;Laerm;58380;48.312;9.246;2022-11-21T16:38:11;48.11;39.12;59.19;;
1754;Laerm;58380;48.312;9.246;2022-11-21T16:40:37;46.84;40.06;54.34;;
1754;Laerm;58380;48.312;9.246;2022-11-21T16:43:11;45.95;39.14;52.77;;
1754;Laerm;58380;48.312;9.246;2022-11-21T16:45:38;45.61;38.86;53.85;;
1754;Laerm;58380;48.312;9.246;2022-11-21T16:48:06;47.41;37.33;55.87;;
1754;Laerm;58380;48.312;9.246;2022-11-21T16:50:32;46.13;38.09;55.86;;
1754;Laerm;58380;48.312;9.246;2022-11-21T16:52:58;44.96;39.47;51.29;;
1754;Laerm;58380;48.312;9.246;2022-11-21T16:55:23;44.00;37.13;51.74;;
1754;Laerm;58380;48.312;9.246;2022-11-21T16:57:49;46.73;38.72;55.75;;
1754;Laerm;58380;48.312;9.246;2022-11-21T17:00:15;44.27;37.94;53.40;;
1754;Laerm;58380;48.312;9.246;2022-11-21T17:02:40;44.64;37.51;52.52;;
1754;Laerm;58380;48.312;9.246;2022-11-21T17:05:06;46.59;38.09;54.23;;
1754;Laerm;58380;48.312;9.246;2022-11-21T17:07:32;46.32;40.06;55.24;;
1754;Laerm;58380;48.312;9.246;2022-11-21T17:09:59;46.60;35.81;58.16;;
1754;Laerm;58380;48.312;9.246;2022-11-21T17:12:25;48.29;40.53;56.39;;
1754;Laerm;58380;48.312;9.246;2022-11-21T17:14:51;43.92;36.96;51.11;;
1754;Laerm;58380;48.312;9.246;2022-11-21T17:17:17;48.65;39.38;61.44;;
1754;Laerm;58380;48.312;9.246;2022-11-21T17:19:43;45.63;36.73;59.38;;
1754;Laerm;58380;48.312;9.246;2022-11-21T17:22:09;46.13;37.00;54.72;;
1754;Laerm;58380;48.312;9.246;2022-11-21T17:24:34;45.17;36.24;53.46;;
1754;Laerm;58380;48.312;9.246;2022-11-21T17:27:00;44.29;33.41;56.60;;
1754;Laerm;58380;48.312;9.246;2022-11-21T17:29:28;44.31;34.88;53.70;;
1754;Laerm;58380;48.312;9.246;2022-11-21T17:31:54;44.38;34.41;50.77;;
1754;Laerm;58380;48.312;9.246;2022-11-21T17:34:19;42.33;34.86;50.37;;
1754;Laerm;58380;48.312;9.246;2022-11-21T17:36:45;45.66;39.34;51.60;;
1754;Laerm;58380;48.312;9.246;2022-11-21T17:39:10;42.59;35.41;52.64;;
1754;Laerm;58380;48.312;9.246;2022-11-21T17:41:37;41.05;33.78;52.68;;
1754;Laerm;58380;48.312;9.246;2022-11-21T17:44:04;45.91;36.36;53.93;;
1754;Laerm;58380;48.312;9.246;2022-11-21T17:46:31;45.79;36.92;56.52;;
1754;Laerm;58380;48.312;9.246;2022-11-21T17:48:57;43.60;36.49;51.71;;
1754;Laerm;58380;48.312;9.246;2022-11-21T17:51:29;46.47;40.06;54.14;;
1754;Laerm;58380;48.312;9.246;2022-11-21T17:53:57;43.26;33.88;51.24;;
1754;Laerm;58380;48.312;9.246;2022-11-21T17:56:27;43.56;37.12;53.75;;
1754;Laerm;58380;48.312;9.246;2022-11-21T17:58:54;42.84;35.12;50.76;;
1754;Laerm;58380;48.312;9.246;2022-11-21T18:01:21;42.84;34.77;50.87;;
1754;Laerm;58380;48.312;9.246;2022-11-21T18:06:17;42.79;33.93;53.60;;
1754;Laerm;58380;48.312;9.246;2022-11-21T18:08:46;42.25;35.17;50.12;;
1754;Laerm;58380;48.312;9.246;2022-11-21T18:11:15;43.74;36.49;54.38;;
1754;Laerm;58380;48.312;9.246;2022-11-21T18:13:43;43.81;33.60;55.12;;
1754;Laerm;58380;48.312;9.246;2022-11-21T18:16:11;42.46;34.97;50.17;;
1754;Laerm;58380;48.312;9.246;2022-11-21T18:18:37;39.28;32.78;53.20;;
1754;Laerm;58380;48.312;9.246;2022-11-21T18:21:09;42.70;32.21;53.42;;
1754;Laerm;58380;48.312;9.246;2022-11-21T18:23:36;42.42;33.41;52.39;;
1754;Laerm;58380;48.312;9.246;2022-11-21T18:26:19;41.80;32.06;49.44;;
1754;Laerm;58380;48.312;9.246;2022-11-21T18:28:49;41.76;32.89;49.35;;
1754;Laerm;58380;48.312;9.246;2022-11-21T18:31:18;41.23;35.07;49.58;;
1754;Laerm;58380;48.312;9.246;2022-11-21T18:33:48;43.81;34.40;52.49;;
1754;Laerm;58380;48.312;9.246;2022-11-21T18:36:15;41.38;34.17;48.89;;
1754;Laerm;58380;48.312;9.246;2022-11-21T18:38:43;42.77;32.78;52.46;;
1754;Laerm;58380;48.312;9.246;2022-11-21T18:41:18;41.64;32.84;53.60;;
1754;Laerm;58380;48.312;9.246;2022-11-21T18:43:58;40.35;33.42;48.18;;
1754;Laerm;58380;48.312;9.246;2022-11-21T18:46:26;40.52;32.75;53.31;;
1754;Laerm;58380;48.312;9.246;2022-11-21T18:48:52;40.73;33.36;51.37;;
1754;Laerm;58380;48.312;9.246;2022-11-21T18:51:21;43.80;32.47;55.70;;
1754;Laerm;58380;48.312;9.246;2022-11-21T18:54:04;39.49;31.20;56.76;;
1754;Laerm;58380;48.312;9.246;2022-11-21T18:56:32;42.65;32.17;51.02;;
1754;Laerm;58380;48.312;9.246;2022-11-21T18:58:57;40.37;34.02;53.61;;
1754;Laerm;58380;48.312;9.246;2022-11-21T19:01:28;41.42;33.99;50.95;;
1754;Laerm;58380;48.312;9.246;2022-11-21T19:03:55;40.77;33.26;49.23;;
1754;Laerm;58380;48.312;9.246;2022-11-21T19:06:23;42.29;32.36;50.62;;
1754;Laerm;58380;48.312;9.246;2022-11-21T19:08:52;38.87;31.49;49.18;;
1754;Laerm;58380;48.312;9.246;2022-11-21T19:11:19;44.78;33.60;57.56;;
1754;Laerm;58380;48.312;9.246;2022-11-21T19:13:46;44.06;31.11;56.18;;
1754;Laerm;58380;48.312;9.246;2022-11-21T19:16:16;35.30;30.30;46.37;;
1754;Laerm;58380;48.312;9.246;2022-11-21T19:18:42;41.99;30.95;53.08;;
1754;Laerm;58380;48.312;9.246;2022-11-21T19:21:13;41.84;32.01;51.95;;
1754;Laerm;58380;48.312;9.246;2022-11-21T19:23:41;40.91;30.75;53.51;;
1754;Laerm;58380;48.312;9.246;2022-11-21T19:26:10;42.12;30.80;51.70;;
1754;Laerm;58380;48.312;9.246;2022-11-21T19:28:38;36.70;31.08;43.64;;
1754;Laerm;58380;48.312;9.246;2022-11-21T19:31:05;39.44;31.47;47.10;;
1754;Laerm;58380;48.312;9.246;2022-11-21T19:33:35;38.92;30.62;47.89;;
1754;Laerm;58380;48.312;9.246;2022-11-21T19:36:21;40.40;31.81;51.32;;
1754;Laerm;58380;48.312;9.246;2022-11-21T19:38:47;38.68;30.57;48.62;;
1754;Laerm;58380;48.312;9.246;2022-11-21T19:41:18;39.33;31.69;49.01;;
1754;Laerm;58380;48.312;9.246;2022-11-21T19:43:52;40.33;31.04;48.78;;
1754;Laerm;58380;48.312;9.246;2022-11-21T19:46:26;40.34;31.18;51.11;;
1754;Laerm;58380;48.312;9.246;2022-11-21T19:48:55;40.59;30.94;49.13;;
1754;Laerm;58380;48.312;9.246;2022-11-21T19:51:26;40.16;31.75;50.70;;
1754;Laerm;58380;48.312;9.246;2022-11-21T19:53:52;38.32;31.65;47.62;;
1754;Laerm;58380;48.312;9.246;2022-11-21T19:56:24;38.35;29.29;48.99;;
1754;Laerm;58380;48.312;9.246;2022-11-21T19:58:51;38.03;30.68;47.75;;
1754;Laerm;58380;48.312;9.246;2022-11-21T20:01:24;38.32;31.01;46.69;;
1754;Laerm;58380;48.312;9.246;2022-11-21T20:03:54;37.35;30.54;48.17;;
1754;Laerm;58380;48.312;9.246;2022-11-21T20:08:54;38.26;30.49;51.34;;
1754;Laerm;58380;48.312;9.246;2022-11-21T20:11:21;36.25;29.80;48.98;;
1754;Laerm;58380;48.312;9.246;2022-11-21T20:13:49;37.50;29.68;49.97;;
1754;Laerm;58380;48.312;9.246;2022-11-21T20:16:19;39.23;31.35;47.07;;
1754;Laerm;58380;48.312;9.246;2022-11-21T20:18:45;37.70;30.63;49.92;;
1754;Laerm;58380;48.312;9.246;2022-11-21T20:21:11;39.34;29.62;48.95;;
1754;Laerm;58380;48.312;9.246;2022-11-21T20:23:37;39.60;30.67;55.11;;
1754;Laerm;58380;48.312;9.246;2022-11-21T20:26:04;37.52;29.72;48.98;;
1754;Laerm;58380;48.312;9.246;2022-11-21T20:28:32;37.45;30.44;46.51;;
1754;Laerm;58380;48.312;9.246;2022-11-21T20:31:11;36.55;29.42;47.46;;
1754;Laerm;58380;48.312;9.246;2022-11-21T20:33:40;35.40;29.85;43.79;;
1754;Laerm;58380;48.312;9.246;2022-11-21T20:36:09;40.17;31.00;52.61;;
1754;Laerm;58380;48.312;9.246;2022-11-21T20:38:35;38.79;29.68;50.30;;
1754;Laerm;58380;48.312;9.246;2022-11-21T20:41:02;42.49;31.99;51.41;;
1754;Laerm;58380;48.312;9.246;2022-11-21T20:43:28;40.24;29.63;48.96;;
1754;Laerm;58380;48.312;9.246;2022-11-21T20:45:53;40.56;30.45;51.07;;
1754;Laerm;58380;48.312;9.246;2022-11-21T20:48:19;38.91;30.90;50.11;;
1754;Laerm;58380;48.312;9.246;2022-11-21T20:50:52;42.15;32.62;56.93;;
1754;Laerm;58380;48.312;9.246;2022-11-21T20:53:19;41.37;32.76;52.65;;
1754;Laerm;58380;48.312;9.246;2022-11-21T20:55:46;37.68;31.55;47.91;;
1754;Laerm;58380;48.312;9.246;2022-11-21T20:58:12;38.01;29.90;49.35;;
1754;Laerm;58380;48.312;9.246;2022-11-21T21:00:39;37.41;29.15;50.61;;
1754;Laerm;58380;48.312;9.246;2022-11-21T21:03:05;37.34;28.44;46.12;;
1754;Laerm;58380;48.312;9.246;2022-11-21T21:05:32;39.24;30.01;49.52;;
1754;Laerm;58380;48.312;9.246;2022-11-21T21:07:58;39.97;30.39;50.07;;
1754;Laerm;58380;48.312;9.246;2022-11-21T21:10:23;36.27;28.93;46.23;;
1754;Laerm;58380;48.312;9.246;2022-11-21T21:12:51;35.25;28.99;44.71;;
1754;Laerm;58380;48.312;9.246;2022-11-21T21:15:16;36.19;31.36;45.31;;
1754;Laerm;58380;48.312;9.246;2022-11-21T21:17:42;38.50;28.94;49.81;;
1754;Laerm;58380;48.312;9.246;2022-11-21T21:20:08;38.00;30.58;48.17;;
1754;Laerm;58380;48.312;9.246;2022-11-21T21:22:33;35.98;29.39;46.15;;
1754;Laerm;58380;48.312;9.246;2022-11-21T21:24:59;32.36;28.27;43.89;;
1754;Laerm;58380;48.312;9.246;2022-11-21T21:27:24;35.32;28.60;53.41;;
1754;Laerm;58380;48.312;9.246;2022-11-21T21:29:50;39.85;29.64;52.68;;
1754;Laerm;58380;48.312;9.246;2022-11-21T21:32:15;34.25;29.99;42.34;;
1754;Laerm;58380;48.312;9.246;2022-11-21T21:34:41;39.45;29.11;53.66;;
1754;Laerm;58380;48.312;9.246;2022-11-21T21:37:06;36.44;28.65;46.10;;
1754;Laerm;58380;48.312;9.246;2022-11-21T21:39:32;39.07;29.02;50.39;;
1754;Laerm;58380;48.312;9.246;2022-11-21T21:41:57;40.07;29.86;49.26;;
1754;Laerm;58380;48.312;9.246;2022-11-21T21:44:23;38.27;29.93;48.44;;
1754;Laerm;58380;48.312;9.246;2022-11-21T21:46:48;37.36;29.15;48.38;;
1754;Laerm;58380;48.312;9.246;2022-11-21T21:49:13;35.38;29.29;49.21;;
1754;Laerm;58380;48.312;9.246;2022-11-21T21:51:40;36.80;28.73;46.32;;
1754;Laerm;58380;48.312;9.246;2022-11-21T21:54:06;36.62;29.85;47.19;;
1754;Laerm;58380;48.312;9.246;2022-11-21T21:56:32;38.03;31.13;51.03;;
1754;Laerm;58380;48.312;9.246;2022-11-21T21:58:58;37.67;32.52;49.61;;
1754;Laerm;58380;48.312;9.246;2022-11-21T22:01:29;39.86;30.62;48.92;;
1754;Laerm;58380;48.312;9.246;2022-11-21T22:03:59;38.56;31.72;49.39;;
1754;Laerm;58380;48.312;9.246;2022-11-21T22:06:25;39.90;32.30;62.77;;
1754;Laerm;58380;48.312;9.246;2022-11-21T22:08:52;41.33;35.73;55.05;;
1754;Laerm;58380;48.312;9.246;2022-11-21T22:11:21;39.46;33.69;64.07;;
1754;Laerm;58380;48.312;9.246;2022-11-21T22:13:54;36.97;33.40;57.82;;
1754;Laerm;58380;48.312;9.246;2022-11-21T22:16:20;35.71;30.94;56.35;;
1754;Laerm;58380;48.312;9.246;2022-11-21T22:18:46;35.34;30.87;57.68;;
1754;Laerm;58380;48.312;9.246;2022-11-21T22:21:26;41.42;33.70;62.12;;
1754;Laerm;58380;48.312;9.246;2022-11-21T22:23:53;40.17;33.42;58.82;;
1754;Laerm;58380;48.312;9.246;2022-11-21T22:26:19;39.65;33.31;58.96;;
1754;Laerm;58380;48.312;9.246;2022-11-21T22:28:45;36.73;30.57;57.57;;
1754;Laerm;58380;48.312;9.246;2022-11-21T22:31:12;37.81;30.59;58.85;;
1754;Laerm;58380;48.312;9.246;2022-11-21T22:33:40;36.06;29.82;57.02;;
1754;Laerm;58380;48.312;9.246;2022-11-21T22:36:14;44.02;29.40;60.68;;
1754;Laerm;58380;48.312;9.246;2022-11-21T22:38:40;37.00;28.88;59.03;;
1754;Laerm;58380;48.312;9.246;2022-11-21T22:41:16;32.76;28.41;59.90;;
1754;Laerm;58380;48.312;9.246;2022-11-21T22:43:43;34.31;28.01;50.06;;
1754;Laerm;58380;48.312;9.246;2022-11-21T22:46:11;41.57;32.66;60.17;;
1754;Laerm;58380;48.312;9.246;2022-11-21T22:48:36;41.57;37.03;57.82;;
1754;Laerm;58380;48.312;9.246;2022-11-21T22:51:02;41.78;36.54;58.30;;
1754;Laerm;58380;48.312;9.246;2022-11-21T22:53:27;40.41;33.26;59.08;;
1754;Laerm;58380;48.312;9.246;2022-11-21T22:56:03;38.34;31.98;60.44;;
1754;Laerm;58380;48.312;9.246;2022-11-21T22:58:34;43.02;33.14;61.58;;
1754;Laerm;58380;48.312;9.246;2022-11-21T23:01:06;39.47;33.21;60.03;;
1754;Laerm;58380;48.312;9.246;2022-11-21T23:03:33;41.25;35.40;61.18;;
1754;Laerm;58380;48.312;9.246;2022-11-21T23:06:03;38.90;34.89;60.39;;
1754;Laerm;58380;48.312;9.246;2022-11-21T23:08:30;41.09;34.55;59.31;;
1754;Laerm;58380;48.312;9.246;2022-11-21T23:11:07;41.27;35.63;68.29;;
1754;Laerm;58380;48.312;9.246;2022-11-21T23:13:35;44.07;37.69;62.11;;
1754;Laerm;58380;48.312;9.246;2022-11-21T23:16:04;42.91;30.28;60.77;;
1754;Laerm;58380;48.312;9.246;2022-11-21T23:18:31;38.02;29.29;60.89;;
1754;Laerm;58380;48.312;9.246;2022-11-21T23:20:57;36.87;30.23;61.54;;
1754;Laerm;58380;48.312;9.246;2022-11-21T23:23:23;37.19;28.64;54.16;;
1754;Laerm;58380;48.312;9.246;2022-11-21T23:25:49;32.39;28.95;44.14;;
1754;Laerm;58380;48.312;9.246;2022-11-21T23:28:15;31.47;28.02;59.16;;
1754;Laerm;58380;48.312;9.246;2022-11-21T23:30:45;39.87;28.56;61.22;;
1754;Laerm;58380;48.312;9.246;2022-11-21T23:33:11;34.86;28.86;61.12;;
1754;Laerm;58380;48.312;9.246;2022-11-21T23:35:37;36.59;28.54;59.74;;
1754;Laerm;58380;48.312;9.246;2022-11-21T23:38:02;41.05;30.10;56.26;;
1754;Laerm;58380;48.312;9.246;2022-11-21T23:40:28;37.79;29.48;54.61;;
1754;Laerm;58380;48.312;9.246;2022-11-21T23:42:53;39.02;28.99;63.52;;
1754;Laerm;58380;48.312;9.246;2022-11-21T23:45:19;41.48;29.02;54.81;;
1754;Laerm;58380;48.312;9.246;2022-11-21T23:47:44;32.62;29.13;41.25;;
